Rochester, Texas
Current Conditions -  °F | °C
As of 12:58 PM on Friday 21 Nov 2014 (Local Time) from KDYS Reporting Station
Scattered Clouds Scattered Clouds  
Wind Chill: 68°   Ceiling: Unl
Heat Index: 68°   Visibility: 10mi
Dew Point: 53°   Wind: 13mph
Humidity: 59%   Direction: 180°S
Pressure: 30.01"   Gusts: NA
Location:  33.32°N, 99.86°W
Report Text: KDYS 211858Z AUTO 18011KT 10SM SCT030 20/12 A3001 RMK AO2 SLP138 T02000118 $
Loading
Personal Weather Stations






























Interactive Weather Map New forecast layout! Learn more

10-Day Weather Forecast

Advertisements
Track Severe Weather on mobile